ΕΜΥ, Εθνική Μετεωρολογική Υπηρεσία - Δελτία Καιρού, Προγνώσεις

ΑΕΡΟΝΑΥΤΙΛΙΑ

GREEK AIRPORTS CODES

TAF LGKP 061400Z 0615/0624 28018KT 9999 SCT018 SCT030 PROB40 TEMPO 0615/0624 5000 RA PROB30 TEMPO 0615/0624 3000 TSRA FEW016CB BKN020=

EUROPEAN AIRPORTS CODES